createdAt,value
2019-06-27T03:59:31.392Z,13.20
2019-06-27T04:02:29.626Z,13.62
2019-06-27T04:05:27.607Z,13.83
2019-06-27T04:08:25.180Z,13.32
2019-06-27T04:11:21.874Z,13.00
2019-06-27T04:14:19.031Z,14.33
2019-06-27T04:17:16.547Z,12.75
2019-06-27T04:20:13.144Z,13.48
2019-06-27T04:23:08.708Z,13.40
2019-06-27T04:26:09.733Z,13.90
2019-06-27T04:29:08.673Z,12.82
2019-06-27T04:32:06.812Z,13.78
2019-06-27T04:35:04.370Z,14.20
2019-06-27T04:38:07.601Z,14.70
2019-06-27T04:41:06.472Z,15.00
2019-06-27T04:44:05.406Z,15.72
2019-06-27T04:47:01.638Z,16.90
2019-06-27T04:49:59.016Z,15.25
2019-06-27T04:52:56.578Z,15.13
2019-06-27T04:55:54.691Z,15.45
2019-06-27T04:58:53.109Z,16.45
2019-06-27T05:01:51.135Z,16.45
2019-06-27T05:04:46.347Z,15.95
2019-06-27T05:07:43.100Z,15.65
2019-06-27T05:10:40.595Z,16.35
2019-06-27T05:13:43.526Z,15.63
2019-06-27T05:16:40.380Z,15.93
2019-06-27T05:19:36.188Z,16.90
2019-06-27T05:22:32.972Z,17.75
2019-06-27T05:25:32.629Z,18.23
2019-06-27T05:28:29.091Z,18.12
2019-06-27T05:31:24.789Z,18.62
2019-06-27T05:34:20.724Z,19.42
2019-06-27T05:37:16.785Z,19.80
2019-06-27T05:40:12.412Z,19.90
2019-06-27T05:43:09.786Z,21.02
2019-06-27T05:46:06.205Z,20.72
2019-06-27T05:49:07.322Z,20.72
2019-06-27T05:52:04.930Z,21.25
2019-06-27T05:55:03.866Z,21.23
2019-06-27T05:58:01.537Z,20.40
2019-06-27T06:01:01.014Z,21.45
2019-06-27T06:03:59.537Z,19.98
2019-06-27T06:06:56.974Z,19.07
2019-06-27T06:09:55.622Z,18.42
2019-06-27T06:12:56.676Z,17.27
2019-06-27T06:16:00.852Z,16.07
2019-06-27T06:18:58.787Z,15.45
2019-06-27T06:21:57.961Z,14.58
2019-06-27T06:24:57.928Z,14.40
2019-06-27T06:27:53.237Z,14.03
2019-06-27T06:30:51.148Z,12.93
2019-06-27T06:33:48.301Z,12.75
2019-06-27T06:36:47.257Z,13.22
2019-06-27T06:39:46.204Z,13.25
2019-06-27T06:42:47.206Z,13.03
2019-06-27T06:45:42.402Z,13.48
2019-06-27T06:48:37.611Z,12.82
2019-06-27T06:51:35.351Z,13.18
2019-06-27T06:54:34.591Z,12.40
2019-06-27T06:57:31.728Z,12.43
2019-06-27T07:00:33.557Z,12.65
2019-06-27T07:03:29.521Z,12.00
2019-06-27T07:06:27.419Z,12.63
2019-06-27T07:09:26.207Z,11.80
2019-06-27T07:12:29.376Z,12.07
2019-06-27T07:15:30.732Z,11.57
2019-06-27T07:18:31.099Z,11.93
2019-06-27T07:21:27.218Z,11.38
2019-06-27T07:24:31.375Z,11.78
2019-06-27T07:27:38.041Z,11.48
2019-06-27T07:30:44.771Z,12.20
2019-06-27T07:33:43.710Z,12.50
2019-06-27T07:36:44.543Z,11.63
2019-06-27T07:43:04.102Z,11.28
2019-06-27T07:46:02.513Z,11.18
2019-06-27T07:49:02.275Z,11.35
2019-06-27T07:52:01.506Z,11.43
2019-06-27T07:55:02.277Z,10.78
2019-06-27T08:00:49.813Z,11.40
2019-06-27T08:03:39.145Z,10.90
2019-06-27T08:06:36.593Z,10.95
2019-06-27T08:09:36.099Z,10.08
2019-06-27T08:15:27.267Z,10.78
2019-06-27T08:21:24.114Z,10.95
2019-06-27T08:24:21.690Z,10.60
2019-06-27T08:27:23.710Z,10.35
2019-06-27T08:30:18.937Z,10.75
2019-06-27T08:33:18.745Z,10.28
2019-06-27T08:36:21.468Z,10.72
2019-06-27T08:39:18.205Z,10.03
2019-06-27T08:42:15.691Z,10.05
2019-06-27T08:45:14.214Z,10.60
2019-06-27T08:48:12.511Z,11.22
2019-06-27T08:51:08.555Z,11.15
2019-06-27T08:54:07.498Z,11.50
2019-06-27T08:57:05.129Z,11.18
2019-06-27T09:00:01.412Z,11.10
2019-06-27T09:02:58.650Z,10.68
2019-06-27T09:05:55.627Z,10.95
2019-06-27T09:08:53.262Z,11.70
2019-06-27T09:11:50.935Z,13.70
2019-06-27T09:14:49.497Z,14.38
2019-06-27T09:17:52.727Z,14.68
2019-06-27T09:20:49.396Z,16.00
2019-06-27T09:23:47.267Z,14.68
2019-06-27T09:26:43.193Z,15.35
2019-06-27T09:29:39.579Z,15.08
2019-06-27T09:32:37.016Z,14.93
2019-06-27T09:35:35.569Z,14.10
2019-06-27T09:41:22.328Z,13.85
2019-06-27T09:44:18.047Z,13.80
2019-06-27T09:47:13.913Z,14.00
2019-06-27T09:50:03.081Z,13.62
2019-06-27T09:52:58.383Z,13.72
2019-06-27T09:55:56.992Z,13.03
2019-06-27T09:58:53.454Z,13.08
2019-06-27T10:01:53.050Z,13.18
2019-06-27T10:04:54.318Z,13.78
2019-06-27T10:07:53.654Z,13.58
2019-06-27T10:10:52.742Z,13.50
2019-06-27T10:14:02.024Z,14.00
2019-06-27T10:17:02.086Z,13.98
2019-06-27T10:20:06.176Z,13.20
2019-06-27T10:23:07.724Z,13.98
2019-06-27T10:26:05.718Z,14.00
2019-06-27T10:29:04.040Z,15.32
2019-06-27T10:32:01.431Z,15.70
2019-06-27T10:37:50.034Z,15.75
2019-06-27T10:40:46.204Z,15.83
2019-06-27T10:43:43.155Z,15.48
2019-06-27T10:46:41.371Z,15.63
2019-06-27T10:49:37.942Z,16.10
2019-06-27T10:52:38.957Z,15.32
2019-06-27T10:55:38.462Z,15.18
2019-06-27T10:58:37.736Z,15.30
2019-06-27T11:01:34.837Z,15.80
2019-06-27T11:04:32.431Z,14.98
2019-06-27T11:07:28.944Z,15.65
2019-06-27T11:16:03.306Z,14.68
2019-06-27T11:19:00.502Z,14.75
2019-06-27T11:21:58.880Z,15.30
2019-06-27T11:24:56.681Z,14.78
2019-06-27T11:27:53.991Z,15.15
2019-06-27T11:30:50.913Z,15.38
2019-06-27T11:33:48.483Z,14.98
2019-06-27T11:36:47.423Z,14.78
2019-06-27T11:39:43.752Z,14.90
2019-06-27T11:42:40.505Z,14.83
2019-06-27T11:45:37.595Z,15.15
2019-06-27T11:48:28.662Z,14.98
2019-06-27T11:51:25.908Z,14.20
2019-06-27T11:54:22.711Z,14.60
2019-06-27T11:57:18.680Z,14.28
2019-06-27T12:00:17.599Z,14.65
2019-06-27T12:03:15.447Z,13.75
2019-06-27T12:06:13.073Z,13.30
2019-06-27T12:09:11.412Z,13.55
2019-06-27T12:12:09.173Z,13.68
2019-06-27T12:15:04.484Z,12.60
2019-06-27T12:18:02.861Z,11.90
2019-06-27T12:21:06.278Z,11.18
2019-06-27T12:24:03.634Z,13.15
2019-06-27T12:27:01.186Z,11.70
2019-06-27T12:29:58.929Z,12.45
2019-06-27T12:32:56.686Z,13.05
2019-06-27T12:35:53.155Z,12.37
2019-06-27T12:38:50.215Z,12.70
2019-06-27T12:41:46.897Z,12.55
2019-06-27T12:44:44.903Z,12.63
2019-06-27T12:47:44.402Z,12.60
2019-06-27T12:50:42.918Z,13.62
2019-06-27T12:53:40.302Z,13.05
2019-06-27T12:56:39.077Z,13.95
2019-06-27T12:59:39.806Z,14.60
2019-06-27T13:02:36.661Z,14.35
2019-06-27T13:05:36.270Z,14.40
2019-06-27T13:08:35.043Z,14.70
2019-06-27T13:11:32.094Z,14.85
2019-06-27T13:14:31.384Z,16.15
2019-06-27T13:17:30.424Z,15.32
2019-06-27T13:20:30.281Z,15.28
2019-06-27T13:23:33.695Z,15.72
2019-06-27T13:26:30.502Z,15.93
2019-06-27T13:29:28.950Z,15.58
2019-06-27T13:32:25.578Z,16.80
2019-06-27T13:35:24.317Z,15.65
2019-06-27T13:38:21.602Z,16.67
2019-06-27T13:41:19.428Z,16.67
2019-06-27T13:44:19.383Z,16.67
2019-06-27T13:47:16.054Z,17.35
2019-06-27T13:50:14.268Z,17.77
2019-06-27T13:53:12.823Z,18.37
2019-06-27T13:56:11.377Z,18.02
2019-06-27T13:59:08.816Z,17.37
2019-06-27T14:02:03.610Z,17.60
2019-06-27T14:04:59.790Z,17.05
2019-06-27T14:07:56.747Z,17.48
2019-06-27T14:10:53.527Z,17.98
2019-06-27T14:13:50.421Z,17.27
2019-06-27T14:16:47.696Z,15.85
2019-06-27T14:19:45.313Z,16.70
2019-06-27T14:22:44.360Z,17.62
2019-06-27T14:25:45.612Z,17.12
2019-06-27T14:28:42.977Z,18.07
